Time;durP1;ratioP1;P1;durP2;ratioP2;P2;SDS_P1;SDS_P2;PMS_P1;PMS_P2;Temp;Humidity;BMP_temperature;BMP_pressure;BME280_temperature;BME280_humidity;BME280_pressure;Samples;Min_cycle;Max_cycle;Signal;HPM_P1;HPM_P2
2021/12/31 00:02:01;;;;;;;;;;;;;;;;;;4221187;28;1290;-59
2021/12/31 00:04:22;;;;;;;;;;;;;;;;;;4220653;28;1148;-59
2021/12/31 00:06:45;;;;;;;;;;;;;;;;;;4220956;28;1029;-59
2021/12/31 00:09:05;;;;;;;;;;;;;;;;;;4221355;28;1128;-59
2021/12/31 00:11:25;;;;;;;;;;;;;;;;;;4222594;28;919;-59
2021/12/31 00:13:46;;;;;;;;;;;;;;;;;;4223550;28;1980;-59
2021/12/31 00:16:06;;;;;;;;;;;;;;;;;;4223643;28;1320;-59
2021/12/31 00:18:26;;;;;;;;;;;;;;;;;;4223671;28;1088;-59
2021/12/31 00:20:47;;;;;;;;;;;;;;;;;;4224008;28;957;-61
2021/12/31 00:23:09;;;;;;;;;;;;;;;;;;4224144;28;948;-59
2021/12/31 00:25:29;;;;;;;;;;;;;;;;;;4223549;28;1216;-60
2021/12/31 00:27:50;;;;;;;;;;;;;;;;;;4223476;28;1382;-59
2021/12/31 00:30:10;;;;;;;;;;;;;;;;;;4208727;28;835;-59
2021/12/31 00:32:31;;;;;;;;;;;;;;;;;;4224038;28;998;-59
2021/12/31 00:34:51;;;;;;;;;;;;;;;;;;4223324;28;1910;-60
2021/12/31 00:37:11;;;;;;;;;;;;;;;;;;4224348;28;1002;-60
2021/12/31 00:39:32;;;;;;;;;;;;;;;;;;4223435;28;1091;-59
2021/12/31 00:41:52;;;;;;;;;;;;;;;;;;4223729;28;1093;-59
2021/12/31 00:44:12;;;;;;;;;;;;;;;;;;4223580;28;1000;-60
2021/12/31 00:46:32;;;;;;;;;;;;;;;;;;4223332;28;915;-59
2021/12/31 00:48:53;;;;;;;;;;;;;;;;;;4223110;28;1093;-60
2021/12/31 00:51:13;;;;;;;;;;;;;;;;;;4223229;28;990;-60
2021/12/31 00:53:34;;;;;;;;;;;;;;;;;;4223418;28;1206;-59
2021/12/31 00:55:54;;;;;;;;;;;;;;;;;;4223144;28;1003;-59
2021/12/31 00:58:14;;;;;;;;;;;;;;;;;;4223408;28;1017;-60
2021/12/31 01:00:35;;;;;;;;;;;;;;;;;;4223276;28;1106;-59
2021/12/31 01:02:55;;;;;;;;;;;;;;;;;;4222858;28;1113;-59
2021/12/31 01:05:15;;;;;;;;;;;;;;;;;;4223303;28;979;-60
2021/12/31 01:07:35;;;;;;;;;;;;;;;;;;4223237;28;962;-59
2021/12/31 01:09:56;;;;;;;;;;;;;;;;;;4222902;28;988;-59
2021/12/31 01:12:16;;;;;;;;;;;;;;;;;;4223377;28;962;-59
2021/12/31 01:14:40;;;;;;;;;;;;;;;;;;4223063;28;1914;-59
2021/12/31 01:17:03;;;;;;;;;;;;;;;;;;4223357;28;1078;-59
2021/12/31 01:22:02;;;;;;;;;;;;;;;;;;4222365;28;1210;-59
2021/12/31 01:24:25;;;;;;;;;;;;;;;;;;4205023;28;1018;-61
2021/12/31 01:26:46;;;;;;;;;;;;;;;;;;4223079;28;1050;-59
2021/12/31 01:29:06;;;;;;;;;;;;;;;;;;4223181;28;1127;-59
2021/12/31 01:31:26;;;;;;;;;;;;;;;;;;4222605;28;932;-59
2021/12/31 01:33:47;;;;;;;;;;;;;;;;;;4222766;28;1089;-59
2021/12/31 01:36:07;;;;;;;;;;;;;;;;;;4222532;28;965;-59
2021/12/31 01:38:28;;;;;;;;;;;;;;;;;;4222439;28;978;-59
2021/12/31 01:40:49;;;;;;;;;;;;;;;;;;4222603;28;1142;-59
2021/12/31 01:43:11;;;;;;;;;;;;;;;;;;4222530;28;969;-59
2021/12/31 01:45:42;;;;;;;;;;;;;;;;;;4222472;28;1094;-59
2021/12/31 01:48:09;;;;;;;;;;;;;;;;;;4222909;28;1039;-59
2021/12/31 01:50:29;;;;;;;;;;;;;;;;;;4222844;28;839;-60
2021/12/31 01:52:50;;;;;;;;;;;;;;;;;;4222874;28;1218;-59
2021/12/31 01:55:10;;;;;;;;;;;;;;;;;;4222729;28;1976;-59
2021/12/31 01:57:30;;;;;;;;;;;;;;;;;;4206931;28;1132;-59
2021/12/31 01:59:51;;;;;;;;;;;;;;;;;;4222583;28;1111;-59
2021/12/31 02:02:29;;;;;;;;;;;;;;;;;;4222448;28;681;-59
2021/12/31 02:04:50;;;;;;;;;;;;;;;;;;4221995;28;1361;-59
2021/12/31 02:07:10;;;;;;;;;;;;;;;;;;4222485;28;1062;-59
2021/12/31 02:09:35;;;;;;;;;;;;;;;;;;4222436;28;1030;-60
2021/12/31 02:11:55;;;;;;;;;;;;;;;;;;4222200;28;1012;-59
2021/12/31 02:14:15;;;;;;;;;;;;;;;;;;4221389;28;1902;-58
2021/12/31 02:16:35;;;;;;;;;;;;;;;;;;4221914;28;1096;-60
2021/12/31 02:18:56;;;;;;;;;;;;;;;;;;4222497;28;938;-59
2021/12/31 02:21:16;;;;;;;;;;;;;;;;;;4221949;28;1198;-60
2021/12/31 02:23:43;;;;;;;;;;;;;;;;;;4222250;28;1019;-59
2021/12/31 02:26:04;;;;;;;;;;;;;;;;;;4220078;28;1764;-59
2021/12/31 02:28:25;;;;;;;;;;;;;;;;;;4221957;28;1260;-60
2021/12/31 02:30:45;;;;;;;;;;;;;;;;;;4222022;28;1067;-59
2021/12/31 02:33:05;;;;;;;;;;;;;;;;;;4221014;28;2352;-59
2021/12/31 02:35:26;;;;;;;;;;;;;;;;;;4221746;28;1968;-60
2021/12/31 02:37:46;;;;;;;;;;;;;;;;;;4221971;28;1657;-59
2021/12/31 02:40:07;;;;;;;;;;;;;;;;;;4222136;28;1007;-59
2021/12/31 02:42:28;;;;;;;;;;;;;;;;;;4222007;28;1516;-59
2021/12/31 02:44:50;;;;;;;;;;;;;;;;;;4222127;28;849;-59
2021/12/31 02:47:10;;;;;;;;;;;;;;;;;;4222192;28;841;-59
2021/12/31 02:49:35;;;;;;;;;;;;;;;;;;4222060;28;2075;-59
2021/12/31 02:51:59;;;;;;;;;;;;;;;;;;4219608;28;1659;-60
2021/12/31 02:54:20;;;;;;;;;;;;;;;;;;4219757;28;1813;-59
2021/12/31 02:56:40;;;;;;;;;;;;;;;;;;4218659;28;1519;-59
2021/12/31 02:59:01;;;;;;;;;;;;;;;;;;4217203;28;1908;-59
2021/12/31 03:01:21;;;;;;;;;;;;;;;;;;4220517;28;1401;-59
2021/12/31 03:03:41;;;;;;;;;;;;;;;;;;4221562;28;1871;-59
2021/12/31 03:06:01;;;;;;;;;;;;;;;;;;4219666;28;1902;-59
2021/12/31 03:08:22;;;;;;;;;;;;;;;;;;4221321;28;984;-59
2021/12/31 03:10:42;;;;;;;;;;;;;;;;;;4221267;28;1151;-59
2021/12/31 03:13:02;;;;;;;;;;;;;;;;;;4221135;28;1146;-59
2021/12/31 03:15:22;;;;;;;;;;;;;;;;;;4221152;28;1906;-59
2021/12/31 03:17:42;;;;;;;;;;;;;;;;;;4221274;28;922;-59
2021/12/31 03:20:10;;;;;;;;;;;;;;;;;;4221109;28;1462;-59
2021/12/31 03:22:30;;;;;;;;;;;;;;;;;;4221456;28;1294;-59
2021/12/31 03:24:51;;;;;;;;;;;;;;;;;;4221210;28;941;-59
2021/12/31 03:27:11;;;;;;;;;;;;;;;;;;4221342;28;1189;-60
2021/12/31 03:29:31;;;;;;;;;;;;;;;;;;4221125;28;1255;-59
2021/12/31 03:31:52;;;;;;;;;;;;;;;;;;4221378;28;1092;-59
2021/12/31 03:34:14;;;;;;;;;;;;;;;;;;4221250;28;1449;-59
2021/12/31 03:36:34;;;;;;;;;;;;;;;;;;4221053;28;1905;-59
2021/12/31 03:38:55;;;;;;;;;;;;;;;;;;4221179;28;1170;-59
2021/12/31 03:41:15;;;;;;;;;;;;;;;;;;4221184;28;1093;-59
2021/12/31 03:43:35;;;;;;;;;;;;;;;;;;4220976;28;1171;-59
2021/12/31 03:45:55;;;;;;;;;;;;;;;;;;4223840;28;985;-59
2021/12/31 03:48:16;;;;;;;;;;;;;;;;;;4224169;28;969;-59
2021/12/31 03:50:36;;;;;;;;;;;;;;;;;;4223907;28;1456;-59
2021/12/31 03:52:56;;;;;;;;;;;;;;;;;;4224533;28;1007;-59
2021/12/31 03:55:16;;;;;;;;;;;;;;;;;;4224165;28;1909;-59
2021/12/31 03:57:36;;;;;;;;;;;;;;;;;;4223104;28;853;-59
2021/12/31 03:59:57;;;;;;;;;;;;;;;;;;4224450;28;1002;-59
2021/12/31 04:02:17;;;;;;;;;;;;;;;;;;4223946;28;1015;-60
2021/12/31 04:04:37;;;;;;;;;;;;;;;;;;4224268;28;904;-60
2021/12/31 04:06:58;;;;;;;;;;;;;;;;;;4222322;28;1316;-59
2021/12/31 04:09:18;;;;;;;;;;;;;;;;;;4224280;28;1076;-59
2021/12/31 04:11:38;;;;;;;;;;;;;;;;;;4224178;28;1051;-60
2021/12/31 04:13:59;;;;;;;;;;;;;;;;;;4224359;28;1171;-59
2021/12/31 04:16:19;;;;;;;;;;;;;;;;;;4223661;28;1906;-59
2021/12/31 04:18:39;;;;;;;;;;;;;;;;;;4223951;28;941;-59
2021/12/31 04:21:01;;;;;;;;;;;;;;;;;;4224189;28;1049;-59
2021/12/31 04:23:28;;;;;;;;;;;;;;;;;;4223527;28;1360;-59
2021/12/31 04:25:49;;;;;;;;;;;;;;;;;;4223683;28;1206;-59
2021/12/31 04:28:09;;;;;;;;;;;;;;;;;;4223801;28;1177;-60
2021/12/31 04:30:29;;;;;;;;;;;;;;;;;;4223856;28;1008;-59
2021/12/31 04:32:50;;;;;;;;;;;;;;;;;;4223652;28;1296;-59
2021/12/31 04:35:11;;;;;;;;;;;;;;;;;;4223635;28;1906;-59
2021/12/31 04:37:32;;;;;;;;;;;;;;;;;;4223311;28;996;-60
2021/12/31 04:39:52;;;;;;;;;;;;;;;;;;4223553;28;1171;-59
2021/12/31 04:42:12;;;;;;;;;;;;;;;;;;4223638;28;1012;-59
2021/12/31 04:44:32;;;;;;;;;;;;;;;;;;4223635;28;933;-60
2021/12/31 04:46:53;;;;;;;;;;;;;;;;;;4223597;28;1147;-59
2021/12/31 04:49:13;;;;;;;;;;;;;;;;;;4223840;28;1115;-59
2021/12/31 04:51:33;;;;;;;;;;;;;;;;;;4223661;28;949;-59
2021/12/31 04:53:54;;;;;;;;;;;;;;;;;;4223782;28;1201;-59
2021/12/31 04:56:14;;;;;;;;;;;;;;;;;;4223108;28;1914;-60
2021/12/31 04:58:35;;;;;;;;;;;;;;;;;;4223730;28;991;-60
2021/12/31 05:00:55;;;;;;;;;;;;;;;;;;4223462;28;1196;-60
2021/12/31 05:03:15;;;;;;;;;;;;;;;;;;4223251;28;980;-59
2021/12/31 05:05:35;;;;;;;;;;;;;;;;;;4223048;28;1057;-59
2021/12/31 05:07:56;;;;;;;;;;;;;;;;;;4223491;28;1058;-60
2021/12/31 05:10:18;;;;;;;;;;;;;;;;;;4223850;28;929;-59
2021/12/31 05:12:38;;;;;;;;;;;;;;;;;;4223429;28;936;-59
2021/12/31 05:15:00;;;;;;;;;;;;;;;;;;4223033;28;1055;-59
2021/12/31 05:17:21;;;;;;;;;;;;;;;;;;4221655;28;1983;-59
2021/12/31 05:19:43;;;;;;;;;;;;;;;;;;4223093;28;949;-59
2021/12/31 05:22:04;;;;;;;;;;;;;;;;;;4223016;28;997;-59
2021/12/31 05:24:24;;;;;;;;;;;;;;;;;;4222677;28;1056;-59
2021/12/31 05:26:45;;;;;;;;;;;;;;;;;;4223211;28;928;-59
2021/12/31 05:29:05;;;;;;;;;;;;;;;;;;4222680;28;1163;-59
2021/12/31 05:31:25;;;;;;;;;;;;;;;;;;4222794;28;1170;-59
2021/12/31 05:33:45;;;;;;;;;;;;;;;;;;4222763;28;1079;-60
2021/12/31 05:36:06;;;;;;;;;;;;;;;;;;4222695;28;2345;-59
2021/12/31 05:38:26;;;;;;;;;;;;;;;;;;4222755;28;1193;-60
2021/12/31 05:40:46;;;;;;;;;;;;;;;;;;4223069;28;825;-59
2021/12/31 05:43:07;;;;;;;;;;;;;;;;;;4222796;28;1092;-59
2021/12/31 05:45:27;;;;;;;;;;;;;;;;;;4223117;28;915;-60
2021/12/31 05:47:49;;;;;;;;;;;;;;;;;;4222971;28;1036;-61
2021/12/31 05:50:18;;;;;;;;;;;;;;;;;;4222776;28;1090;-59
2021/12/31 05:52:39;;;;;;;;;;;;;;;;;;4222387;28;1005;-60
2021/12/31 05:54:59;;;;;;;;;;;;;;;;;;4222836;28;926;-59
2021/12/31 05:57:19;;;;;;;;;;;;;;;;;;4222349;28;1905;-59
2021/12/31 05:59:39;;;;;;;;;;;;;;;;;;4222658;28;1140;-59
2021/12/31 06:01:59;;;;;;;;;;;;;;;;;;4222521;28;998;-59
2021/12/31 06:04:20;;;;;;;;;;;;;;;;;;4222605;28;1025;-59
2021/12/31 06:06:40;;;;;;;;;;;;;;;;;;4222115;28;1145;-59
2021/12/31 06:09:00;;;;;;;;;;;;;;;;;;4221261;28;942;-59
2021/12/31 06:11:21;;;;;;;;;;;;;;;;;;4222312;28;1193;-59
2021/12/31 06:13:43;;;;;;;;;;;;;;;;;;4222701;28;1099;-60
2021/12/31 06:16:03;;;;;;;;;;;;;;;;;;4222052;28;1921;-59
2021/12/31 06:18:23;;;;;;;;;;;;;;;;;;4222179;28;1187;-60
2021/12/31 06:20:43;;;;;;;;;;;;;;;;;;4222222;28;974;-60
2021/12/31 06:23:04;;;;;;;;;;;;;;;;;;4221971;28;1168;-59
2021/12/31 06:25:24;;;;;;;;;;;;;;;;;;4221463;28;1555;-60
2021/12/31 06:27:45;;;;;;;;;;;;;;;;;;4222234;28;926;-60
2021/12/31 06:30:05;;;;;;;;;;;;;;;;;;4222397;28;1383;-59
2021/12/31 06:32:25;;;;;;;;;;;;;;;;;;4222136;28;1128;-59
2021/12/31 06:34:45;;;;;;;;;;;;;;;;;;4222392;28;1196;-60
2021/12/31 06:37:05;;;;;;;;;;;;;;;;;;4222309;28;1902;-59
2021/12/31 06:39:27;;;;;;;;;;;;;;;;;;4221960;28;889;-59
2021/12/31 06:41:47;;;;;;;;;;;;;;;;;;4222169;28;947;-59
2021/12/31 06:44:07;;;;;;;;;;;;;;;;;;4222028;28;1078;-59
2021/12/31 06:46:28;;;;;;;;;;;;;;;;;;4222173;28;982;-59
2021/12/31 06:48:48;;;;;;;;;;;;;;;;;;4221955;28;1317;-60
2021/12/31 06:51:09;;;;;;;;;;;;;;;;;;4222035;28;875;-61
2021/12/31 06:53:29;;;;;;;;;;;;;;;;;;4221868;28;1210;-60
2021/12/31 06:55:50;;;;;;;;;;;;;;;;;;4221652;28;937;-60
2021/12/31 06:58:10;;;;;;;;;;;;;;;;;;4221981;28;920;-60
2021/12/31 07:00:31;;;;;;;;;;;;;;;;;;4222053;28;981;-60
2021/12/31 07:02:51;;;;;;;;;;;;;;;;;;4221808;28;971;-59
2021/12/31 07:05:12;;;;;;;;;;;;;;;;;;4221988;28;936;-60
2021/12/31 07:07:32;;;;;;;;;;;;;;;;;;4221896;28;984;-60
2021/12/31 07:09:52;;;;;;;;;;;;;;;;;;4221749;28;964;-60
2021/12/31 07:12:13;;;;;;;;;;;;;;;;;;4221853;28;967;-60
2021/12/31 07:14:33;;;;;;;;;;;;;;;;;;4221576;28;998;-60
2021/12/31 07:16:53;;;;;;;;;;;;;;;;;;4221550;28;1998;-60
2021/12/31 07:19:13;;;;;;;;;;;;;;;;;;4221420;28;1735;-60
2021/12/31 07:21:34;;;;;;;;;;;;;;;;;;4221532;28;981;-61
2021/12/31 07:23:54;;;;;;;;;;;;;;;;;;4221623;28;978;-60
2021/12/31 07:26:14;;;;;;;;;;;;;;;;;;4221603;28;966;-60
2021/12/31 07:28:35;;;;;;;;;;;;;;;;;;4221500;28;1114;-61
2021/12/31 07:30:55;;;;;;;;;;;;;;;;;;4221776;28;909;-59
2021/12/31 07:33:15;;;;;;;;;;;;;;;;;;4220720;28;983;-60
2021/12/31 07:35:35;;;;;;;;;;;;;;;;;;4221782;28;979;-60
2021/12/31 07:37:56;;;;;;;;;;;;;;;;;;4221205;28;1909;-60
2021/12/31 07:40:25;;;;;;;;;;;;;;;;;;4221419;28;1038;-60
2021/12/31 07:42:45;;;;;;;;;;;;;;;;;;4221337;28;951;-60
2021/12/31 07:45:05;;;;;;;;;;;;;;;;;;4218633;28;1808;-60
2021/12/31 07:47:25;;;;;;;;;;;;;;;;;;4220796;28;1720;-60
2021/12/31 07:49:46;;;;;;;;;;;;;;;;;;4220174;28;1366;-60
2021/12/31 07:52:07;;;;;;;;;;;;;;;;;;4219914;28;1396;-60
2021/12/31 07:54:27;;;;;;;;;;;;;;;;;;4220299;28;1567;-60
2021/12/31 07:56:47;;;;;;;;;;;;;;;;;;4218646;28;1898;-60
2021/12/31 07:59:08;;;;;;;;;;;;;;;;;;4220507;28;1607;-60
2021/12/31 08:01:28;;;;;;;;;;;;;;;;;;4221476;28;950;-59
2021/12/31 08:03:48;;;;;;;;;;;;;;;;;;4220796;28;1512;-60
2021/12/31 08:06:08;;;;;;;;;;;;;;;;;;4221143;28;855;-60
2021/12/31 08:08:29;;;;;;;;;;;;;;;;;;4221224;28;967;-60
2021/12/31 08:10:49;;;;;;;;;;;;;;;;;;4221066;28;1085;-60
2021/12/31 08:13:09;;;;;;;;;;;;;;;;;;4221044;28;1257;-59
2021/12/31 08:15:30;;;;;;;;;;;;;;;;;;4221400;28;967;-60
2021/12/31 08:17:50;;;;;;;;;;;;;;;;;;4237198;28;1905;-60
2021/12/31 08:20:11;;;;;;;;;;;;;;;;;;4238032;28;1156;-60
2021/12/31 08:22:31;;;;;;;;;;;;;;;;;;4238103;28;950;-59
2021/12/31 08:24:52;;;;;;;;;;;;;;;;;;4238231;28;1059;-60
2021/12/31 08:27:12;;;;;;;;;;;;;;;;;;4237941;28;966;-60
2021/12/31 08:29:32;;;;;;;;;;;;;;;;;;4237668;28;931;-61
2021/12/31 08:31:53;;;;;;;;;;;;;;;;;;4237930;28;1103;-59
2021/12/31 08:34:13;;;;;;;;;;;;;;;;;;4240889;28;1047;-59
2021/12/31 08:36:33;;;;;;;;;;;;;;;;;;4240481;28;933;-61
2021/12/31 08:38:53;;;;;;;;;;;;;;;;;;4240612;28;933;-59
2021/12/31 08:41:13;;;;;;;;;;;;;;;;;;4240822;28;1080;-59
2021/12/31 08:43:34;;;;;;;;;;;;;;;;;;4240382;28;961;-60
2021/12/31 08:45:54;;;;;;;;;;;;;;;;;;4240402;28;1071;-60
2021/12/31 08:48:14;;;;;;;;;;;;;;;;;;4230418;28;1414;-60
2021/12/31 08:50:35;;;;;;;;;;;;;;;;;;4223764;28;903;-60
2021/12/31 08:52:55;;;;;;;;;;;;;;;;;;4223188;28;1148;-59
2021/12/31 08:55:17;;;;;;;;;;;;;;;;;;4223300;28;955;-60
2021/12/31 08:57:37;;;;;;;;;;;;;;;;;;4223314;28;1906;-60
2021/12/31 08:59:58;;;;;;;;;;;;;;;;;;4221477;28;1764;-60
2021/12/31 09:02:18;;;;;;;;;;;;;;;;;;4215321;28;1534;-60
2021/12/31 09:04:38;;;;;;;;;;;;;;;;;;4222757;28;1884;-60
2021/12/31 09:06:58;;;;;;;;;;;;;;;;;;4222633;28;1379;-59
2021/12/31 09:09:18;;;;;;;;;;;;;;;;;;4223096;28;906;-60
2021/12/31 09:11:38;;;;;;;;;;;;;;;;;;4223383;28;1474;-60
2021/12/31 09:13:59;;;;;;;;;;;;;;;;;;4223016;28;1139;-59
2021/12/31 09:16:19;;;;;;;;;;;;;;;;;;4222613;28;1758;-60
2021/12/31 09:18:39;;;;;;;;;;;;;;;;;;4223389;28;1985;-60
2021/12/31 09:20:59;;;;;;;;;;;;;;;;;;4222950;28;1593;-59
2021/12/31 09:23:19;;;;;;;;;;;;;;;;;;4205157;28;947;-60
2021/12/31 09:25:39;;;;;;;;;;;;;;;;;;4223189;28;1085;-60
2021/12/31 09:28:00;;;;;;;;;;;;;;;;;;4223241;28;1018;-59
2021/12/31 09:30:20;;;;;;;;;;;;;;;;;;4223042;28;1044;-59
2021/12/31 09:32:40;;;;;;;;;;;;;;;;;;4220098;28;1826;-60
2021/12/31 09:35:01;;;;;;;;;;;;;;;;;;4223007;28;1434;-59
2021/12/31 09:37:21;;;;;;;;;;;;;;;;;;4222923;28;1905;-59
2021/12/31 09:39:41;;;;;;;;;;;;;;;;;;4222757;28;1444;-60
2021/12/31 09:42:03;;;;;;;;;;;;;;;;;;4222115;28;1941;-60
2021/12/31 09:44:23;;;;;;;;;;;;;;;;;;4220729;28;1778;-60
2021/12/31 09:46:43;;;;;;;;;;;;;;;;;;4221047;28;1414;-59
2021/12/31 09:49:04;;;;;;;;;;;;;;;;;;4220996;28;1383;-59
2021/12/31 09:51:24;;;;;;;;;;;;;;;;;;4220477;28;1575;-59
2021/12/31 09:53:44;;;;;;;;;;;;;;;;;;4221001;28;1793;-60
2021/12/31 09:56:05;;;;;;;;;;;;;;;;;;4218361;28;1515;-59
2021/12/31 09:58:25;;;;;;;;;;;;;;;;;;4220640;28;1906;-59
2021/12/31 10:00:46;;;;;;;;;;;;;;;;;;4222362;28;959;-59
2021/12/31 10:03:07;;;;;;;;;;;;;;;;;;4222381;28;871;-59
2021/12/31 10:05:28;;;;;;;;;;;;;;;;;;4222360;28;942;-60
2021/12/31 10:07:48;;;;;;;;;;;;;;;;;;4221736;28;1481;-60
2021/12/31 10:10:09;;;;;;;;;;;;;;;;;;4221903;28;2107;-59
2021/12/31 10:12:29;;;;;;;;;;;;;;;;;;4221870;28;1781;-59
2021/12/31 10:14:50;;;;;;;;;;;;;;;;;;4221805;28;1333;-59
2021/12/31 10:17:10;;;;;;;;;;;;;;;;;;4219326;28;1610;-60
2021/12/31 10:19:31;;;;;;;;;;;;;;;;;;4222125;28;1656;-59
2021/12/31 10:21:51;;;;;;;;;;;;;;;;;;4221989;28;1666;-60
2021/12/31 10:24:12;;;;;;;;;;;;;;;;;;4221182;28;1984;-61
2021/12/31 10:26:32;;;;;;;;;;;;;;;;;;4220704;28;1714;-60
2021/12/31 10:28:52;;;;;;;;;;;;;;;;;;4221685;28;1853;-60
2021/12/31 10:31:13;;;;;;;;;;;;;;;;;;4222331;28;876;-61
2021/12/31 10:33:33;;;;;;;;;;;;;;;;;;4222240;28;1148;-60
2021/12/31 10:35:53;;;;;;;;;;;;;;;;;;4222092;28;1149;-61
2021/12/31 10:38:14;;;;;;;;;;;;;;;;;;4221641;28;2442;-61
2021/12/31 10:40:36;;;;;;;;;;;;;;;;;;4220445;28;1358;-60
2021/12/31 10:42:56;;;;;;;;;;;;;;;;;;4220204;28;1413;-60
2021/12/31 10:45:17;;;;;;;;;;;;;;;;;;4220219;28;1393;-60
2021/12/31 10:47:37;;;;;;;;;;;;;;;;;;4220598;28;1379;-60
2021/12/31 10:49:57;;;;;;;;;;;;;;;;;;4218712;28;1337;-60
2021/12/31 10:52:18;;;;;;;;;;;;;;;;;;4219880;28;1404;-61
2021/12/31 10:54:47;;;;;;;;;;;;;;;;;;4218407;28;2597;-61
2021/12/31 10:57:08;;;;;;;;;;;;;;;;;;4221399;28;1567;-61
2021/12/31 10:59:33;;;;;;;;;;;;;;;;;;4221542;28;1906;-60
2021/12/31 11:01:54;;;;;;;;;;;;;;;;;;4216948;28;1396;-61
2021/12/31 11:04:15;;;;;;;;;;;;;;;;;;4217058;28;1756;-60
2021/12/31 11:06:35;;;;;;;;;;;;;;;;;;4217910;28;1987;-61
2021/12/31 11:08:57;;;;;;;;;;;;;;;;;;4218808;28;1590;-60
2021/12/31 11:11:18;;;;;;;;;;;;;;;;;;4219118;28;1559;-62
2021/12/31 11:13:38;;;;;;;;;;;;;;;;;;4219272;28;1801;-60
2021/12/31 11:15:59;;;;;;;;;;;;;;;;;;4220676;28;1975;-60
2021/12/31 11:18:23;;;;;;;;;;;;;;;;;;4218749;28;1910;-60
2021/12/31 11:20:44;;;;;;;;;;;;;;;;;;4210455;28;2581;-60
2021/12/31 11:23:04;;;;;;;;;;;;;;;;;;4211100;28;2160;-60
2021/12/31 11:25:25;;;;;;;;;;;;;;;;;;4212523;28;2146;-60
2021/12/31 11:27:47;;;;;;;;;;;;;;;;;;4218062;28;2188;-60
2021/12/31 11:30:07;;;;;;;;;;;;;;;;;;4218947;28;1684;-60
2021/12/31 11:32:28;;;;;;;;;;;;;;;;;;4212797;28;2896;-60
2021/12/31 11:34:49;;;;;;;;;;;;;;;;;;4219233;28;1593;-60
2021/12/31 11:37:09;;;;;;;;;;;;;;;;;;4218639;28;1514;-60
2021/12/31 11:39:29;;;;;;;;;;;;;;;;;;4217837;28;1909;-60
2021/12/31 11:41:50;;;;;;;;;;;;;;;;;;4219837;28;1973;-60
2021/12/31 11:44:13;;;;;;;;;;;;;;;;;;4217738;28;1562;-60
2021/12/31 11:46:33;;;;;;;;;;;;;;;;;;4214166;28;2166;-60
2021/12/31 11:48:54;;;;;;;;;;;;;;;;;;4219884;28;1472;-60
2021/12/31 11:51:14;;;;;;;;;;;;;;;;;;4218984;28;1720;-60
2021/12/31 11:53:34;;;;;;;;;;;;;;;;;;4217287;28;1766;-61
2021/12/31 11:55:54;;;;;;;;;;;;;;;;;;4219908;28;1577;-60
2021/12/31 11:58:14;;;;;;;;;;;;;;;;;;4211668;28;1993;-60
2021/12/31 12:00:35;;;;;;;;;;;;;;;;;;4217505;28;1823;-60
2021/12/31 12:02:55;;;;;;;;;;;;;;;;;;4217798;28;1617;-60
2021/12/31 12:05:16;;;;;;;;;;;;;;;;;;4217412;28;1586;-64
2021/12/31 12:07:36;;;;;;;;;;;;;;;;;;4220380;28;1371;-61
2021/12/31 12:09:57;;;;;;;;;;;;;;;;;;4218990;28;2724;-59
2021/12/31 12:12:17;;;;;;;;;;;;;;;;;;4222562;28;1367;-59
2021/12/31 12:14:38;;;;;;;;;;;;;;;;;;4222767;28;1455;-59
2021/12/31 12:16:58;;;;;;;;;;;;;;;;;;4221602;28;1477;-59
2021/12/31 12:19:19;;;;;;;;;;;;;;;;;;4222030;28;1986;-57
2021/12/31 12:21:39;;;;;;;;;;;;;;;;;;4223303;28;2050;-59
2021/12/31 12:24:00;;;;;;;;;;;;;;;;;;4223253;28;1789;-59
2021/12/31 12:26:20;;;;;;;;;;;;;;;;;;4214692;28;1501;-59
2021/12/31 12:28:41;;;;;;;;;;;;;;;;;;4216772;28;1614;-58
2021/12/31 12:31:08;;;;;;;;;;;;;;;;;;4210585;28;1833;-58
2021/12/31 12:33:28;;;;;;;;;;;;;;;;;;4209067;28;2355;-59
2021/12/31 12:35:49;;;;;;;;;;;;;;;;;;4219588;28;1710;-59
2021/12/31 12:38:11;;;;;;;;;;;;;;;;;;4218662;28;1831;-59
2021/12/31 12:40:31;;;;;;;;;;;;;;;;;;4221591;28;1903;-60
2021/12/31 12:42:51;;;;;;;;;;;;;;;;;;4213847;28;1415;-61
2021/12/31 12:45:11;;;;;;;;;;;;;;;;;;4207568;28;966;-61
2021/12/31 12:47:32;;;;;;;;;;;;;;;;;;4218619;28;1535;-60
2021/12/31 12:49:53;;;;;;;;;;;;;;;;;;4231378;28;1795;-60
2021/12/31 12:52:13;;;;;;;;;;;;;;;;;;4213112;28;1646;-61
2021/12/31 12:54:33;;;;;;;;;;;;;;;;;;4207384;28;946;-62
2021/12/31 12:56:53;;;;;;;;;;;;;;;;;;4213433;28;960;-60
2021/12/31 12:59:17;;;;;;;;;;;;;;;;;;4234068;28;1898;-60
2021/12/31 13:01:37;;;;;;;;;;;;;;;;;;4240446;28;1041;-60
2021/12/31 13:03:58;;;;;;;;;;;;;;;;;;4234234;28;1487;-60
2021/12/31 13:06:18;;;;;;;;;;;;;;;;;;4221306;28;1891;-60
2021/12/31 13:08:38;;;;;;;;;;;;;;;;;;4224159;28;1320;-60
2021/12/31 13:10:58;;;;;;;;;;;;;;;;;;4223587;28;1490;-61
2021/12/31 13:13:19;;;;;;;;;;;;;;;;;;4221767;28;1426;-61
2021/12/31 13:15:39;;;;;;;;;;;;;;;;;;4233725;28;1744;-61
2021/12/31 13:18:00;;;;;;;;;;;;;;;;;;4237964;28;1539;-60
2021/12/31 13:20:21;;;;;;;;;;;;;;;;;;4217949;28;1987;-61
2021/12/31 13:22:41;;;;;;;;;;;;;;;;;;4223698;28;1538;-60
2021/12/31 13:25:02;;;;;;;;;;;;;;;;;;4201598;28;1191;-61
2021/12/31 13:27:22;;;;;;;;;;;;;;;;;;4237701;28;1623;-62
2021/12/31 13:29:42;;;;;;;;;;;;;;;;;;4239901;28;946;-60
2021/12/31 13:32:02;;;;;;;;;;;;;;;;;;4240172;28;922;-61
2021/12/31 13:34:24;;;;;;;;;;;;;;;;;;4240314;28;1008;-60
2021/12/31 13:36:44;;;;;;;;;;;;;;;;;;4225529;28;1099;-60
2021/12/31 13:39:04;;;;;;;;;;;;;;;;;;4231447;28;1979;-61
2021/12/31 13:41:25;;;;;;;;;;;;;;;;;;4223346;28;1420;-60
2021/12/31 13:43:45;;;;;;;;;;;;;;;;;;4223916;28;1163;-60
2021/12/31 13:46:05;;;;;;;;;;;;;;;;;;4223308;28;996;-61
2021/12/31 13:48:26;;;;;;;;;;;;;;;;;;4223692;28;1031;-60
2021/12/31 13:50:46;;;;;;;;;;;;;;;;;;4219517;28;1144;-60
2021/12/31 13:53:06;;;;;;;;;;;;;;;;;;4210511;28;1666;-61
2021/12/31 13:55:27;;;;;;;;;;;;;;;;;;4216809;28;1605;-60
2021/12/31 13:57:47;;;;;;;;;;;;;;;;;;4223254;28;1572;-60
2021/12/31 14:00:07;;;;;;;;;;;;;;;;;;4223254;28;1988;-61
2021/12/31 14:02:29;;;;;;;;;;;;;;;;;;4217786;28;1807;-61
2021/12/31 14:04:50;;;;;;;;;;;;;;;;;;4224265;28;1827;-60
2021/12/31 14:07:11;;;;;;;;;;;;;;;;;;4223788;28;1787;-61
2021/12/31 14:09:31;;;;;;;;;;;;;;;;;;4224779;28;1883;-61
2021/12/31 14:11:53;;;;;;;;;;;;;;;;;;4223196;28;1057;-60
2021/12/31 14:14:13;;;;;;;;;;;;;;;;;;4222949;28;1040;-61
2021/12/31 14:16:34;;;;;;;;;;;;;;;;;;4222114;28;1133;-57
2021/12/31 14:18:54;;;;;;;;;;;;;;;;;;4222074;28;1980;-56
2021/12/31 14:21:14;;;;;;;;;;;;;;;;;;4221766;28;1132;-56
2021/12/31 14:23:35;;;;;;;;;;;;;;;;;;4222228;28;1081;-57
2021/12/31 14:25:55;;;;;;;;;;;;;;;;;;4221731;28;1161;-56
2021/12/31 14:28:16;;;;;;;;;;;;;;;;;;4221546;28;1003;-56
2021/12/31 14:30:37;;;;;;;;;;;;;;;;;;4220650;28;1124;-57
2021/12/31 14:32:58;;;;;;;;;;;;;;;;;;4221604;28;1441;-57
2021/12/31 14:35:23;;;;;;;;;;;;;;;;;;4213210;28;2375;-57
2021/12/31 14:37:44;;;;;;;;;;;;;;;;;;4220690;28;1141;-57
2021/12/31 14:40:09;;;;;;;;;;;;;;;;;;4221530;28;1910;-57
2021/12/31 14:42:30;;;;;;;;;;;;;;;;;;4216056;28;1976;-57
2021/12/31 14:44:51;;;;;;;;;;;;;;;;;;4207570;28;2108;-56
2021/12/31 14:47:11;;;;;;;;;;;;;;;;;;4199080;28;2566;-56
2021/12/31 14:49:35;;;;;;;;;;;;;;;;;;4209873;28;1480;-57
2021/12/31 14:51:56;;;;;;;;;;;;;;;;;;4213689;28;1100;-57
2021/12/31 14:54:16;;;;;;;;;;;;;;;;;;4221066;28;959;-56
2021/12/31 14:56:36;;;;;;;;;;;;;;;;;;4207530;28;1076;-56
2021/12/31 14:58:56;;;;;;;;;;;;;;;;;;4209705;28;1427;-56
2021/12/31 15:01:17;;;;;;;;;;;;;;;;;;4221447;28;1145;-56
2021/12/31 15:03:37;;;;;;;;;;;;;;;;;;4212124;28;1627;-56
2021/12/31 15:05:58;;;;;;;;;;;;;;;;;;4208740;28;2598;-56
2021/12/31 15:08:18;;;;;;;;;;;;;;;;;;4215101;28;981;-56
2021/12/31 15:10:41;;;;;;;;;;;;;;;;;;4203165;28;1187;-56
2021/12/31 15:13:01;;;;;;;;;;;;;;;;;;4219478;28;1336;-56
2021/12/31 15:15:22;;;;;;;;;;;;;;;;;;4219962;28;946;-56
2021/12/31 15:17:44;;;;;;;;;;;;;;;;;;4221408;28;1343;-56
2021/12/31 15:20:05;;;;;;;;;;;;;;;;;;4213072;28;1902;-56
2021/12/31 15:22:25;;;;;;;;;;;;;;;;;;4220840;28;1179;-57
2021/12/31 15:24:47;;;;;;;;;;;;;;;;;;4221274;28;1351;-56
2021/12/31 15:27:07;;;;;;;;;;;;;;;;;;4220948;28;1230;-57
2021/12/31 15:29:27;;;;;;;;;;;;;;;;;;4221069;28;1189;-56
2021/12/31 15:31:48;;;;;;;;;;;;;;;;;;4220823;28;970;-56
2021/12/31 15:34:08;;;;;;;;;;;;;;;;;;4220995;28;1033;-56
2021/12/31 15:36:28;;;;;;;;;;;;;;;;;;4221057;28;1107;-56
2021/12/31 15:38:48;;;;;;;;;;;;;;;;;;4220845;28;1147;-56
2021/12/31 15:41:09;;;;;;;;;;;;;;;;;;4221718;28;1906;-58
2021/12/31 15:43:29;;;;;;;;;;;;;;;;;;4223870;28;1201;-57
2021/12/31 15:45:49;;;;;;;;;;;;;;;;;;4207353;28;961;-56
2021/12/31 15:48:10;;;;;;;;;;;;;;;;;;4214137;28;1263;-56
2021/12/31 15:50:31;;;;;;;;;;;;;;;;;;4223589;28;1445;-56
2021/12/31 15:52:51;;;;;;;;;;;;;;;;;;4223142;28;1281;-56
2021/12/31 15:55:13;;;;;;;;;;;;;;;;;;4223343;28;1272;-56
2021/12/31 15:57:34;;;;;;;;;;;;;;;;;;4222875;28;1041;-57
2021/12/31 15:59:54;;;;;;;;;;;;;;;;;;4223280;28;2009;-56
2021/12/31 16:02:15;;;;;;;;;;;;;;;;;;4223499;28;1059;-57
2021/12/31 16:04:35;;;;;;;;;;;;;;;;;;4224169;28;1017;-57
2021/12/31 16:06:55;;;;;;;;;;;;;;;;;;4223353;28;1110;-58
2021/12/31 16:09:16;;;;;;;;;;;;;;;;;;4223894;28;969;-60
2021/12/31 16:11:38;;;;;;;;;;;;;;;;;;4224002;28;978;-61
2021/12/31 16:14:01;;;;;;;;;;;;;;;;;;4223870;28;1089;-59
2021/12/31 16:16:21;;;;;;;;;;;;;;;;;;4221216;28;1401;-60
2021/12/31 16:18:42;;;;;;;;;;;;;;;;;;4223798;28;1083;-60
2021/12/31 16:21:02;;;;;;;;;;;;;;;;;;4220010;28;1986;-59
2021/12/31 16:23:22;;;;;;;;;;;;;;;;;;4220999;28;1323;-60
2021/12/31 16:25:42;;;;;;;;;;;;;;;;;;4223673;28;986;-59